Time,TemperatureF,DewpointF,PressureIn,WindDirection,WindDirectionDegrees,WindSpeedMPH,WindSpeedGustMPH,Humidity,HourlyPrecipIn,Conditions,Clouds,dailyrainin,SoftwareType,DateUTC
2013-09-04 00:02:00,65.2,59.6,29.94,SE,133,0.0,0.0,82,0.00,CLR,,0.00,WeatherDisplay:10.37,2013-09-04 05:02:00,
2013-09-04 00:07:00,64.8,59.2,29.94,SE,133,0.0,0.0,82,0.00,CLR,,0.00,WeatherDisplay:10.37,2013-09-04 05:07:00,
2013-09-04 00:12:00,64.5,59.2,29.95,SE,133,0.0,0.0,83,0.00,CLR,,0.00,WeatherDisplay:10.37,2013-09-04 05:12:00,
2013-09-04 00:17:00,64.5,59.2,29.95,SE,133,0.0,0.0,83,0.00,CLR,,0.00,WeatherDisplay:10.37,2013-09-04 05:17:00,
2013-09-04 00:22:00,64.2,59.3,29.95,SE,133,0.0,0.0,84,0.00,CLR,,0.00,WeatherDisplay:10.37,2013-09-04 05:22:00,
2013-09-04 00:27:00,64.0,59.1,29.95,SE,133,0.0,0.0,84,0.00,CLR,,0.00,WeatherDisplay:10.37,2013-09-04 05:27:00,
2013-09-04 00:32:00,63.9,59.0,29.95,SE,133,0.0,0.0,84,0.00,CLR,,0.00,WeatherDisplay:10.37,2013-09-04 05:32:00,
2013-09-04 00:37:00,63.5,58.9,29.95,SE,133,0.0,0.0,85,0.00,CLR,,0.00,WeatherDisplay:10.37,2013-09-04 05:37:00,
2013-09-04 00:42:00,63.5,58.9,29.95,SE,133,0.0,0.0,85,0.00,CLR,,0.00,WeatherDisplay:10.37,2013-09-04 05:42:00,
2013-09-04 00:47:00,63.4,59.1,29.95,SE,133,0.0,0.0,86,0.00,CLR,,0.00,WeatherDisplay:10.37,2013-09-04 05:47:00,
2013-09-04 00:52:00,63.2,58.9,29.95,SE,133,0.0,0.0,86,0.00,CLR,,0.00,WeatherDisplay:10.37,2013-09-04 05:52:00,
2013-09-04 00:57:00,63.2,58.9,29.95,SE,133,0.0,0.0,86,0.00,CLR,,0.00,WeatherDisplay:10.37,2013-09-04 05:57:00,
2013-09-04 01:02:00,63.1,58.8,29.95,SE,133,0.0,0.0,86,0.00,CLR,,0.00,WeatherDisplay:10.37,2013-09-04 06:02:00,
2013-09-04 01:07:00,62.9,59.0,29.95,SE,133,0.0,0.0,87,0.00,CLR,,0.00,WeatherDisplay:10.37,2013-09-04 06:07:00,
2013-09-04 01:12:00,62.7,58.8,29.95,SE,133,0.0,0.0,87,0.00,CLR,,0.00,WeatherDisplay:10.37,2013-09-04 06:12:00,
2013-09-04 01:17:00,62.6,58.7,29.95,SE,133,0.0,0.0,87,0.00,CLR,,0.00,WeatherDisplay:10.37,2013-09-04 06:17:00,
2013-09-04 01:22:00,62.3,58.4,29.94,SE,133,0.0,0.0,87,0.00,CLR,,0.00,WeatherDisplay:10.37,2013-09-04 06:22:00,
2013-09-04 01:27:00,62.0,58.4,29.94,SE,133,0.0,0.0,88,0.00,CLR,,0.00,WeatherDisplay:10.37,2013-09-04 06:27:00,
2013-09-04 01:32:00,61.8,58.2,29.95,SE,133,0.0,0.0,88,0.00,CLR,,0.00,WeatherDisplay:10.37,2013-09-04 06:32:00,
2013-09-04 01:37:00,61.8,58.2,29.95,SE,133,0.0,0.0,88,0.00,CLR,,0.00,WeatherDisplay:10.37,2013-09-04 06:37:00,
2013-09-04 01:42:00,61.5,57.9,29.95,SE,133,0.0,0.0,88,0.00,CLR,,0.00,WeatherDisplay:10.37,2013-09-04 06:42:00,
2013-09-04 01:47:00,61.5,57.9,29.95,SE,134,0.0,0.0,88,0.00,CLR,,0.00,WeatherDisplay:10.37,2013-09-04 06:47:00,
2013-09-04 01:52:00,61.3,57.7,29.94,SE,133,0.0,0.0,88,0.00,CLR,,0.00,WeatherDisplay:10.37,2013-09-04 06:52:00,
2013-09-04 01:57:00,61.3,58.0,29.94,SE,133,0.0,0.0,89,0.00,CLR,,0.00,WeatherDisplay:10.37,2013-09-04 06:57:00,
2013-09-04 02:03:00,61.2,57.9,29.94,SE,134,0.0,0.0,89,0.00,CLR,,0.00,WeatherDisplay:10.37,2013-09-04 07:03:00,
2013-09-04 02:08:00,61.2,57.9,29.94,SE,133,0.0,0.0,89,0.00,CLR,,0.00,WeatherDisplay:10.37,2013-09-04 07:08:00,
2013-09-04 02:13:00,61.2,58.2,29.94,SE,134,0.0,0.0,90,0.00,CLR,,0.00,WeatherDisplay:10.37,2013-09-04 07:13:00,
2013-09-04 02:18:00,61.0,58.0,29.95,SE,133,0.0,0.0,90,0.00,CLR,,0.00,WeatherDisplay:10.37,2013-09-04 07:18:00,
2013-09-04 02:23:00,60.9,57.9,29.95,SE,133,0.0,0.0,90,0.00,CLR,,0.00,WeatherDisplay:10.37,2013-09-04 07:23:00,
2013-09-04 02:28:00,60.7,57.7,29.95,SE,133,0.0,0.0,90,0.00,CLR,,0.00,WeatherDisplay:10.37,2013-09-04 07:28:00,
2013-09-04 02:33:00,60.4,57.5,29.95,SE,133,0.0,0.0,90,0.00,CLR,,0.00,WeatherDisplay:10.37,2013-09-04 07:33:00,
2013-09-04 02:38:00,60.4,57.5,29.95,SE,134,0.0,0.0,90,0.00,CLR,,0.00,WeatherDisplay:10.37,2013-09-04 07:38:00,
2013-09-04 02:43:00,60.2,57.3,29.95,SE,133,0.0,0.0,90,0.00,CLR,,0.00,WeatherDisplay:10.37,2013-09-04 07:43:00,
2013-09-04 02:48:00,60.2,57.3,29.95,SE,133,0.0,0.0,90,0.00,CLR,,0.00,WeatherDisplay:10.37,2013-09-04 07:48:00,
2013-09-04 02:53:00,60.2,57.3,29.95,SE,134,0.0,0.0,90,0.00,CLR,,0.00,WeatherDisplay:10.37,2013-09-04 07:53:00,
2013-09-04 02:58:00,60.1,57.5,29.95,SE,134,0.0,0.0,91,0.00,CLR,,0.00,WeatherDisplay:10.37,2013-09-04 07:58:00,
2013-09-04 03:03:00,60.1,57.5,29.95,SE,133,0.0,0.0,91,0.00,CLR,,0.00,WeatherDisplay:10.37,2013-09-04 08:03:00,
2013-09-04 03:08:00,60.1,57.5,29.95,SE,133,0.0,0.0,91,0.00,CLR,,0.00,WeatherDisplay:10.37,2013-09-04 08:08:00,
2013-09-04 03:13:00,59.9,57.3,29.96,SE,134,0.0,0.0,91,0.00,CLR,,0.00,WeatherDisplay:10.37,2013-09-04 08:13:00,
2013-09-04 03:18:00,59.8,57.2,29.96,SE,133,0.0,0.0,91,0.00,CLR,,0.00,WeatherDisplay:10.37,2013-09-04 08:18:00,
2013-09-04 03:23:00,59.5,56.9,29.96,SE,133,0.0,0.0,91,0.00,CLR,,0.00,WeatherDisplay:10.37,2013-09-04 08:23:00,
2013-09-04 03:28:00,59.3,56.7,29.95,SE,133,0.0,0.0,91,0.00,CLR,,0.00,WeatherDisplay:10.37,2013-09-04 08:28:00,
2013-09-04 03:33:00,59.2,56.6,29.95,SE,133,0.0,0.0,91,0.00,CLR,,0.00,WeatherDisplay:10.37,2013-09-04 08:33:00,
2013-09-04 03:38:00,59.2,56.6,29.95,SE,133,0.0,0.0,91,0.00,CLR,,0.00,WeatherDisplay:10.37,2013-09-04 08:38:00,
2013-09-04 03:43:00,59.2,56.6,29.95,SE,133,0.0,0.0,91,0.00,CLR,,0.00,WeatherDisplay:10.37,2013-09-04 08:43:00,
2013-09-04 03:48:00,59.2,56.9,29.95,SE,133,0.0,0.0,92,0.00,CLR,,0.00,WeatherDisplay:10.37,2013-09-04 08:48:00,
2013-09-04 03:53:00,59.2,56.6,29.96,SE,133,0.0,0.0,91,0.00,CLR,,0.00,WeatherDisplay:10.37,2013-09-04 08:53:00,
2013-09-04 03:58:00,59.0,56.4,29.96,SE,133,0.0,0.0,91,0.00,CLR,,0.00,WeatherDisplay:10.37,2013-09-04 08:58:00,
2013-09-04 04:03:00,58.9,56.6,29.96,SE,133,0.0,0.0,92,0.00,CLR,,0.00,WeatherDisplay:10.37,2013-09-04 09:03:00,
2013-09-04 04:08:00,58.7,56.1,29.96,SE,134,0.0,0.0,91,0.00,CLR,,0.00,WeatherDisplay:10.37,2013-09-04 09:08:00,
2013-09-04 04:13:00,58.4,56.1,29.96,SE,133,0.0,0.0,92,0.00,CLR,,0.00,WeatherDisplay:10.37,2013-09-04 09:13:00,
2013-09-04 04:18:00,58.3,56.0,29.97,SE,133,0.0,0.0,92,0.00,CLR,,0.00,WeatherDisplay:10.37,2013-09-04 09:18:00,
2013-09-04 04:23:00,58.4,56.1,29.96,SE,133,0.0,0.0,92,0.00,CLR,,0.00,WeatherDisplay:10.37,2013-09-04 09:23:00,
2013-09-04 04:28:00,58.4,56.1,29.96,SE,134,0.0,0.0,92,0.00,CLR,,0.00,WeatherDisplay:10.37,2013-09-04 09:28:00,
2013-09-04 04:33:00,58.3,56.0,29.96,SE,134,0.0,0.0,92,0.00,CLR,,0.00,WeatherDisplay:10.37,2013-09-04 09:33:00,
2013-09-04 04:38:00,58.3,56.0,29.96,SE,133,0.0,0.0,92,0.00,CLR,,0.00,WeatherDisplay:10.37,2013-09-04 09:38:00,
2013-09-04 04:43:00,58.3,56.0,29.96,SE,133,0.0,0.0,92,0.00,CLR,,0.00,WeatherDisplay:10.37,2013-09-04 09:43:00,
2013-09-04 04:48:00,58.4,56.1,29.96,SE,133,0.0,0.0,92,0.00,CLR,,0.00,WeatherDisplay:10.37,2013-09-04 09:48:00,
2013-09-04 04:53:00,58.3,56.0,29.96,SE,133,0.0,0.0,92,0.00,CLR,,0.00,WeatherDisplay:10.37,2013-09-04 09:53:00,
2013-09-04 04:58:00,58.4,56.1,29.96,SE,133,0.0,0.0,92,0.00,CLR,,0.00,WeatherDisplay:10.37,2013-09-04 09:58:00,
2013-09-04 05:03:00,58.4,56.1,29.96,SE,133,0.0,0.0,92,0.00,CLR,,0.00,WeatherDisplay:10.37,2013-09-04 10:03:00,
2013-09-04 05:08:00,58.3,56.0,29.96,SE,133,0.0,0.0,92,0.00,CLR,,0.00,WeatherDisplay:10.37,2013-09-04 10:08:00,
2013-09-04 05:13:00,58.1,55.8,29.97,SE,133,0.0,0.0,92,0.00,CLR,,0.00,WeatherDisplay:10.37,2013-09-04 10:13:00,
2013-09-04 05:18:00,58.1,55.8,29.97,SE,134,0.0,0.0,92,0.00,CLR,,0.00,WeatherDisplay:10.37,2013-09-04 10:18:00,
2013-09-04 05:23:00,58.0,55.7,29.97,SE,133,0.0,0.0,92,0.00,CLR,,0.00,WeatherDisplay:10.37,2013-09-04 10:23:00,
2013-09-04 05:28:00,58.1,55.8,29.98,SE,133,0.0,0.0,92,0.00,CLR,,0.00,WeatherDisplay:10.37,2013-09-04 10:28:00,
2013-09-04 05:33:00,58.0,55.7,29.98,SE,133,0.0,0.0,92,0.00,CLR,,0.00,WeatherDisplay:10.37,2013-09-04 10:33:00,
2013-09-04 05:38:00,57.6,55.3,29.98,SE,134,0.0,0.0,92,0.00,CLR,,0.00,WeatherDisplay:10.37,2013-09-04 10:38:00,
2013-09-04 05:43:00,57.6,55.3,29.98,SE,133,0.0,0.0,92,0.00,CLR,,0.00,WeatherDisplay:10.37,2013-09-04 10:43:00,
2013-09-04 05:48:00,57.5,55.2,29.98,SE,134,0.0,0.0,92,0.00,CLR,,0.00,WeatherDisplay:10.37,2013-09-04 10:48:00,
2013-09-04 05:53:00,57.5,55.5,29.98,SE,133,0.0,0.0,93,0.00,CLR,,0.00,WeatherDisplay:10.37,2013-09-04 10:53:00,
2013-09-04 05:58:00,57.5,55.2,29.98,SE,133,0.0,0.0,92,0.00,CLR,,0.00,WeatherDisplay:10.37,2013-09-04 10:58:00,
2013-09-04 06:03:00,57.3,55.0,29.98,SE,134,0.0,0.0,92,0.00,CLR,,0.00,WeatherDisplay:10.37,2013-09-04 11:03:00,
2013-09-04 06:08:00,57.2,55.2,29.98,SE,133,0.0,0.0,93,0.00,CLR,,0.00,WeatherDisplay:10.37,2013-09-04 11:08:00,
2013-09-04 06:13:00,57.2,54.9,29.98,SE,134,0.0,0.0,92,0.00,CLR,,0.00,WeatherDisplay:10.37,2013-09-04 11:13:00,
2013-09-04 06:18:00,57.0,55.0,29.98,SE,133,0.0,0.0,93,0.00,CLR,,0.00,WeatherDisplay:10.37,2013-09-04 11:18:00,
2013-09-04 06:23:00,56.9,54.9,29.98,SE,133,0.0,0.0,93,0.00,CLR,,0.00,WeatherDisplay:10.37,2013-09-04 11:23:00,
2013-09-04 06:28:00,56.9,54.9,29.98,SE,133,0.0,0.0,93,0.00,CLR,,0.00,WeatherDisplay:10.37,2013-09-04 11:28:00,
2013-09-04 06:33:00,56.7,54.7,29.98,SE,133,0.0,0.0,93,0.00,CLR,,0.00,WeatherDisplay:10.37,2013-09-04 11:33:00,
2013-09-04 06:38:00,56.6,54.6,29.98,SE,134,0.0,0.0,93,0.00,CLR,,0.00,WeatherDisplay:10.37,2013-09-04 11:38:00,
2013-09-04 06:43:00,56.5,54.5,29.99,SE,133,0.0,0.0,93,0.00,CLR,,0.00,WeatherDisplay:10.37,2013-09-04 11:43:00,
2013-09-04 06:48:00,56.5,54.5,29.99,SE,133,0.0,0.0,93,0.00,CLR,,0.00,WeatherDisplay:10.37,2013-09-04 11:48:00,
2013-09-04 06:53:00,56.5,54.5,29.99,SE,133,0.0,0.0,93,0.00,CLR,,0.00,WeatherDisplay:10.37,2013-09-04 11:53:00,
2013-09-04 06:58:00,56.6,54.6,29.99,SE,133,0.0,0.0,93,0.00,CLR,,0.00,WeatherDisplay:10.37,2013-09-04 11:58:00,
2013-09-04 07:03:00,56.9,54.9,29.99,SE,133,0.0,0.0,93,0.00,CLR,,0.00,WeatherDisplay:10.37,2013-09-04 12:03:00,
2013-09-04 07:08:00,57.0,55.0,29.99,SE,133,0.0,0.0,93,0.00,CLR,,0.00,WeatherDisplay:10.37,2013-09-04 12:08:00,
2013-09-04 07:13:00,57.0,55.0,30.00,SE,133,0.0,0.0,93,0.00,CLR,,0.00,WeatherDisplay:10.37,2013-09-04 12:13:00,
2013-09-04 07:18:00,57.0,55.0,30.00,SE,133,0.0,0.0,93,0.00,CLR,,0.00,WeatherDisplay:10.37,2013-09-04 12:18:00,
2013-09-04 07:23:00,57.0,55.0,30.01,SE,133,0.0,0.0,93,0.00,CLR,,0.00,WeatherDisplay:10.37,2013-09-04 12:23:00,
2013-09-04 07:28:00,57.3,55.3,30.01,SE,133,0.0,0.0,93,0.00,CLR,,0.00,WeatherDisplay:10.37,2013-09-04 12:28:00,
2013-09-04 07:33:00,57.6,55.6,30.01,SE,133,0.0,0.0,93,0.00,CLR,,0.00,WeatherDisplay:10.37,2013-09-04 12:33:00,
2013-09-04 07:38:00,58.0,56.0,30.01,SE,133,0.0,0.0,93,0.00,CLR,,0.00,WeatherDisplay:10.37,2013-09-04 12:38:00,
2013-09-04 07:43:00,58.6,56.6,30.01,SE,133,0.0,0.0,93,0.00,CLR,,0.00,WeatherDisplay:10.37,2013-09-04 12:43:00,
2013-09-04 07:49:00,58.9,56.9,30.01,SE,127,0.0,0.0,93,0.00,CLR,,0.00,WeatherDisplay:10.37,2013-09-04 12:49:00,
2013-09-04 07:54:00,59.5,57.5,30.01,SE,127,0.0,0.0,93,0.00,CLR,,0.00,WeatherDisplay:10.37,2013-09-04 12:54:00,
2013-09-04 07:59:00,60.1,57.8,30.01,SE,127,0.0,0.0,92,0.00,CLR,,0.00,WeatherDisplay:10.37,2013-09-04 12:59:00,
2013-09-04 08:04:00,60.7,58.4,30.01,SE,127,0.0,0.0,92,0.00,CLR,,0.00,WeatherDisplay:10.37,2013-09-04 13:04:00,
2013-09-04 08:09:00,61.2,58.6,30.02,SE,127,0.0,0.0,91,0.00,CLR,,0.00,WeatherDisplay:10.37,2013-09-04 13:09:00,
2013-09-04 08:14:00,62.0,59.3,30.02,SE,127,0.0,0.0,91,0.00,CLR,,0.00,WeatherDisplay:10.37,2013-09-04 13:14:00,
2013-09-04 08:19:00,62.6,59.6,30.02,SE,127,0.0,0.0,90,0.00,CLR,,0.00,WeatherDisplay:10.37,2013-09-04 13:19:00,
2013-09-04 08:24:00,63.4,59.5,30.02,SE,127,0.0,0.0,87,0.00,CLR,,0.00,WeatherDisplay:10.37,2013-09-04 13:24:00,
2013-09-04 08:29:00,64.2,59.6,30.02,SE,127,0.0,0.0,85,0.00,CLR,,0.00,WeatherDisplay:10.37,2013-09-04 13:29:00,
2013-09-04 08:34:00,64.7,58.7,30.02,SE,127,0.0,0.0,81,0.00,CLR,,0.00,WeatherDisplay:10.37,2013-09-04 13:34:00,
2013-09-04 08:39:00,65.5,58.8,30.02,SE,127,0.0,0.0,79,0.00,CLR,,0.00,WeatherDisplay:10.37,2013-09-04 13:39:00,
2013-09-04 08:44:00,66.3,58.9,30.02,SE,127,0.0,0.0,77,0.00,CLR,,0.00,WeatherDisplay:10.37,2013-09-04 13:44:00,
2013-09-04 08:49:00,67.1,59.3,30.03,SE,127,0.0,0.0,76,0.00,CLR,,0.00,WeatherDisplay:10.37,2013-09-04 13:49:00,
2013-09-04 08:54:00,68.3,59.7,30.03,SE,127,0.0,0.0,74,0.00,CLR,,0.00,WeatherDisplay:10.37,2013-09-04 13:54:00,
2013-09-04 08:59:00,69.1,60.1,30.03,SE,127,0.0,0.0,73,0.00,CLR,,0.00,WeatherDisplay:10.37,2013-09-04 13:59:00,
2013-09-04 09:04:00,69.9,60.5,30.03,SE,127,0.0,0.0,72,0.00,CLR,,0.00,WeatherDisplay:10.37,2013-09-04 14:04:00,
2013-09-04 09:09:00,70.4,60.5,30.03,SE,127,0.0,0.0,71,0.00,CLR,,0.00,WeatherDisplay:10.37,2013-09-04 14:09:00,
2013-09-04 09:14:00,71.1,60.8,30.03,SE,127,0.0,0.0,70,0.00,CLR,,0.00,WeatherDisplay:10.37,2013-09-04 14:14:00,
2013-09-04 09:19:00,71.8,60.2,30.03,SE,127,0.0,0.0,67,0.00,CLR,,0.00,WeatherDisplay:10.37,2013-09-04 14:19:00,
2013-09-04 09:24:00,72.1,60.5,30.03,SE,127,0.0,0.0,67,0.00,CLR,,0.00,WeatherDisplay:10.37,2013-09-04 14:24:00,
2013-09-04 09:29:00,72.3,61.1,30.03,SE,127,0.0,0.0,68,0.00,CLR,,0.00,WeatherDisplay:10.37,2013-09-04 14:29:00,
2013-09-04 09:34:00,72.8,61.2,30.03,SE,127,0.0,0.0,67,0.00,CLR,,0.00,WeatherDisplay:10.37,2013-09-04 14:34:00,
2013-09-04 09:39:00,73.3,62.1,30.03,SE,127,0.0,0.0,68,0.00,CLR,,0.00,WeatherDisplay:10.37,2013-09-04 14:39:00,
2013-09-04 09:44:00,73.5,61.9,30.03,SE,127,0.0,0.0,67,0.00,CLR,,0.00,WeatherDisplay:10.37,2013-09-04 14:44:00,
2013-09-04 09:49:00,73.7,62.1,30.04,SE,127,0.0,1.0,67,0.00,CLR,,0.00,WeatherDisplay:10.37,2013-09-04 14:49:00,
2013-09-04 09:54:00,74.0,61.9,30.04,SE,127,0.0,0.0,66,0.00,CLR,,0.00,WeatherDisplay:10.37,2013-09-04 14:54:00,
2013-09-04 09:59:00,74.0,61.0,30.04,SE,145,0.0,0.0,64,0.00,CLR,,0.00,WeatherDisplay:10.37,2013-09-04 14:59:00,
2013-09-04 10:04:00,74.6,61.6,30.04,SE,145,0.0,0.0,64,0.00,CLR,,0.00,WeatherDisplay:10.37,2013-09-04 15:04:00,
2013-09-04 10:09:00,75.3,62.3,30.04,SE,145,0.0,0.0,64,0.00,CLR,,0.00,WeatherDisplay:10.37,2013-09-04 15:09:00,
2013-09-04 10:14:00,76.0,62.0,30.04,SE,144,0.0,0.0,62,0.00,CLR,,0.00,WeatherDisplay:10.37,2013-09-04 15:14:00,
2013-09-04 10:19:00,76.5,61.6,30.04,SE,144,0.0,0.0,60,0.00,CLR,,0.00,WeatherDisplay:10.37,2013-09-04 15:19:00,
2013-09-04 10:24:00,76.8,61.9,30.04,ESE,118,3.2,8.1,60,0.00,CLR,,0.00,WeatherDisplay:10.37,2013-09-04 15:24:00,
2013-09-04 10:29:00,77.2,62.7,30.04,ESE,118,1.4,1.4,61,0.00,CLR,,0.00,WeatherDisplay:10.37,2013-09-04 15:29:00,
2013-09-04 10:34:00,77.7,63.6,30.04,ESE,119,0.0,0.0,62,0.00,CLR,,0.00,WeatherDisplay:10.37,2013-09-04 15:34:00,
2013-09-04 10:39:00,78.3,61.8,30.04,ESE,119,1.6,10.4,57,0.00,CLR,,0.00,WeatherDisplay:10.37,2013-09-04 15:39:00,
2013-09-04 10:44:00,78.8,62.8,30.04,ESE,119,1.3,2.3,58,0.00,CLR,,0.00,WeatherDisplay:10.37,2013-09-04 15:44:00,
2013-09-04 10:49:00,79.4,62.3,30.04,SE,125,1.8,3.5,56,0.00,CLR,,0.00,WeatherDisplay:10.37,2013-09-04 15:49:00,
2013-09-04 10:54:00,79.6,61.5,30.04,SE,145,6.2,11.5,54,0.00,CLR,,0.00,WeatherDisplay:10.37,2013-09-04 15:54:00,
2013-09-04 10:59:00,79.8,61.7,30.04,SE,144,2.4,8.0,54,0.00,CLR,,0.00,WeatherDisplay:10.37,2013-09-04 15:59:00,
2013-09-04 11:04:00,79.8,60.1,30.04,SE,144,0.8,2.0,51,0.00,CLR,,0.00,WeatherDisplay:10.37,2013-09-04 16:04:00,
2013-09-04 11:09:00,80.7,61.4,30.04,SE,142,4.2,10.4,52,0.00,CLR,,0.00,WeatherDisplay:10.37,2013-09-04 16:09:00,
2013-09-04 11:14:00,80.9,60.5,30.04,SE,138,0.3,2.0,50,0.00,CLR,,0.00,WeatherDisplay:10.37,2013-09-04 16:14:00,
2013-09-04 11:19:00,81.2,60.8,30.04,SE,138,2.5,7.0,50,0.00,CLR,,0.00,WeatherDisplay:10.37,2013-09-04 16:19:00,
2013-09-04 11:24:00,81.2,59.6,30.04,SE,138,6.6,9.2,48,0.00,CLR,,0.00,WeatherDisplay:10.37,2013-09-04 16:24:00,
2013-09-04 11:29:00,81.2,60.2,30.03,ENE,77,3.8,6.9,49,0.00,CLR,,0.00,WeatherDisplay:10.37,2013-09-04 16:29:00,
2013-09-04 11:34:00,81.4,59.2,30.03,ENE,77,4.1,6.9,47,0.00,CLR,,0.00,WeatherDisplay:10.37,2013-09-04 16:34:00,
2013-09-04 11:39:00,82.0,59.8,30.03,SE,139,7.8,11.5,47,0.00,CLR,,0.00,WeatherDisplay:10.37,2013-09-04 16:39:00,
2013-09-04 11:44:00,82.4,60.7,30.03,SE,140,2.8,5.8,48,0.00,CLR,,0.00,WeatherDisplay:10.37,2013-09-04 16:44:00,
2013-09-04 11:49:00,82.6,59.1,30.03,SE,140,0.0,2.3,45,0.00,CLR,,0.00,WeatherDisplay:10.37,2013-09-04 16:49:00,
2013-09-04 11:54:00,82.6,59.1,30.03,East,90,3.1,8.1,45,0.00,CLR,,0.00,WeatherDisplay:10.37,2013-09-04 16:54:00,
2013-09-04 11:59:00,82.2,59.4,30.03,East,82,2.8,6.9,46,0.00,CLR,,0.00,WeatherDisplay:10.37,2013-09-04 16:59:00,
2013-09-04 12:04:00,83.0,58.8,30.03,East,92,1.9,6.0,44,0.00,CLR,,0.00,WeatherDisplay:10.37,2013-09-04 17:04:00,
2013-09-04 12:09:00,83.8,58.3,30.03,South,175,4.5,9.2,42,0.00,CLR,,0.00,WeatherDisplay:10.37,2013-09-04 17:09:00,
2013-09-04 12:14:00,84.1,59.2,30.03,South,171,6.5,8.1,43,0.00,CLR,,0.00,WeatherDisplay:10.37,2013-09-04 17:14:00,
2013-09-04 12:19:00,84.1,55.7,30.03,ESE,115,3.7,8.1,38,0.00,CLR,,0.00,WeatherDisplay:10.37,2013-09-04 17:19:00,
2013-09-04 12:24:00,84.0,56.4,30.02,NE,39,1.0,4.6,39,0.00,CLR,,0.00,WeatherDisplay:10.37,2013-09-04 17:24:00,
2013-09-04 12:29:00,84.1,54.3,30.02,South,171,9.7,12.7,36,0.00,CLR,,0.00,WeatherDisplay:10.37,2013-09-04 17:29:00,
2013-09-04 12:34:00,84.3,55.9,30.02,South,171,1.7,8.1,38,0.00,CLR,,0.00,WeatherDisplay:10.37,2013-09-04 17:34:00,
2013-09-04 12:39:00,84.5,56.1,30.02,South,170,5.5,9.2,38,0.00,CLR,,0.00,WeatherDisplay:10.37,2013-09-04 17:39:00,
2013-09-04 12:44:00,84.9,57.2,30.02,South,170,0.5,3.0,39,0.00,CLR,,0.00,WeatherDisplay:10.37,2013-09-04 17:44:00,
2013-09-04 12:49:00,85.5,54.7,30.02,ENE,66,2.5,11.0,35,0.00,CLR,,0.00,WeatherDisplay:10.37,2013-09-04 17:49:00,
2013-09-04 12:54:00,84.9,55.0,30.02,ENE,66,4.8,9.2,36,0.00,CLR,,0.00,WeatherDisplay:10.37,2013-09-04 17:54:00,
2013-09-04 12:59:00,84.9,55.7,30.02,SSE,149,8.6,11.5,37,0.00,CLR,,0.00,WeatherDisplay:10.37,2013-09-04 17:59:00,
2013-09-04 13:04:00,85.5,57.0,30.01,ENE,66,3.7,12.7,38,0.00,CLR,,0.00,WeatherDisplay:10.37,2013-09-04 18:04:00,
2013-09-04 13:10:00,85.7,55.7,30.01,ENE,67,2.9,8.1,36,0.00,CLR,,0.00,WeatherDisplay:10.37,2013-09-04 18:10:00,
2013-09-04 13:15:00,86.1,57.5,30.01,East,94,2.3,8.0,38,0.00,CLR,,0.00,WeatherDisplay:10.37,2013-09-04 18:15:00,
2013-09-04 13:20:00,86.5,57.1,30.01,ESE,115,6.0,10.0,37,0.00,CLR,,0.00,WeatherDisplay:10.37,2013-09-04 18:20:00,
2013-09-04 13:25:00,86.7,55.0,30.01,SSE,159,9.1,12.7,34,0.00,CLR,,0.00,WeatherDisplay:10.37,2013-09-04 18:25:00,
2013-09-04 13:30:00,86.7,51.6,30.01,SE,136,3.2,11.5,30,0.00,CLR,,0.00,WeatherDisplay:10.37,2013-09-04 18:30:00,
2013-09-04 13:35:00,86.7,52.4,30.01,SE,132,12.0,15.0,31,0.00,CLR,,0.00,WeatherDisplay:10.37,2013-09-04 18:35:00,
2013-09-04 13:40:00,86.5,55.6,30.01,SE,129,6.5,13.0,35,0.00,CLR,,0.00,WeatherDisplay:10.37,2013-09-04 18:40:00,
2013-09-04 13:45:00,86.5,55.6,30.01,SE,141,12.0,18.0,35,0.00,CLR,,0.00,WeatherDisplay:10.37,2013-09-04 18:45:00,
2013-09-04 13:50:00,86.3,54.6,30.01,SSE,147,7.6,13.8,34,0.00,CLR,,0.00,WeatherDisplay:10.37,2013-09-04 18:50:00,
2013-09-04 13:55:00,86.5,56.4,30.01,SE,146,4.7,7.0,36,0.00,CLR,,0.00,WeatherDisplay:10.37,2013-09-04 18:55:00,
2013-09-04 14:00:00,87.3,57.1,30.01,SE,146,3.0,12.0,36,0.00,CLR,,0.00,WeatherDisplay:10.37,2013-09-04 19:00:00,
2013-09-04 14:05:00,87.4,55.6,30.01,SE,139,2.0,6.9,34,0.00,CLR,,0.00,WeatherDisplay:10.37,2013-09-04 19:05:00,
2013-09-04 14:10:00,87.2,56.2,30.01,East,84,6.5,12.7,35,0.00,CLR,,0.00,WeatherDisplay:10.37,2013-09-04 19:10:00,
2013-09-04 14:15:00,87.2,53.7,30.00,East,101,9.0,18.0,32,0.00,CLR,,0.00,WeatherDisplay:10.37,2013-09-04 19:15:00,
2013-09-04 14:20:00,87.6,52.3,30.00,SE,136,6.0,16.0,30,0.00,CLR,,0.00,WeatherDisplay:10.37,2013-09-04 19:20:00,
2013-09-04 14:25:00,88.2,54.6,30.00,SE,140,2.0,9.0,32,0.00,CLR,,0.00,WeatherDisplay:10.37,2013-09-04 19:25:00,
2013-09-04 14:30:00,87.8,54.3,30.00,SE,134,6.0,16.0,32,0.00,CLR,,0.00,WeatherDisplay:10.37,2013-09-04 19:30:00,
2013-09-04 14:35:00,87.6,58.1,30.00,SE,135,9.0,23.0,37,0.00,CLR,,0.00,WeatherDisplay:10.37,2013-09-04 19:35:00,
2013-09-04 14:40:00,87.4,57.9,29.99,SE,125,5.0,18.0,37,0.00,CLR,,0.00,WeatherDisplay:10.37,2013-09-04 19:40:00,
2013-09-04 14:45:00,87.6,57.3,29.99,East,101,1.0,9.0,36,0.00,CLR,,0.00,WeatherDisplay:10.37,2013-09-04 19:45:00,
2013-09-04 14:50:00,87.9,55.2,29.99,SE,124,6.0,18.0,33,0.00,CLR,,0.00,WeatherDisplay:10.37,2013-09-04 19:50:00,
2013-09-04 14:55:00,88.4,57.3,29.99,SE,143,6.0,18.0,35,0.00,CLR,,0.00,WeatherDisplay:10.37,2013-09-04 19:55:00,
2013-09-04 15:00:00,88.4,56.5,29.98,ESE,121,8.2,11.0,34,0.00,CLR,,0.00,WeatherDisplay:10.37,2013-09-04 20:00:00,
2013-09-04 15:05:00,88.0,53.6,29.98,SE,132,8.1,13.8,31,0.00,CLR,,0.00,WeatherDisplay:10.37,2013-09-04 20:05:00,
2013-09-04 15:10:00,88.0,53.6,29.98,SE,129,3.0,10.0,31,0.00,CLR,,0.00,WeatherDisplay:10.37,2013-09-04 20:10:00,
2013-09-04 15:15:00,88.6,55.8,29.98,SE,130,8.0,15.0,33,0.00,CLR,,0.00,WeatherDisplay:10.37,2013-09-04 20:15:00,
2013-09-04 15:20:00,88.8,56.0,29.98,SE,136,4.8,13.0,33,0.00,CLR,,0.00,WeatherDisplay:10.37,2013-09-04 20:20:00,
2013-09-04 15:25:00,88.6,51.3,29.98,SE,130,7.5,13.8,28,0.00,CLR,,0.00,WeatherDisplay:10.37,2013-09-04 20:25:00,
2013-09-04 15:30:00,88.6,55.0,29.97,ESE,122,9.0,13.0,32,0.00,CLR,,0.00,WeatherDisplay:10.37,2013-09-04 20:30:00,
2013-09-04 15:35:00,88.8,52.4,29.97,SE,136,5.8,12.7,29,0.00,CLR,,0.00,WeatherDisplay:10.37,2013-09-04 20:35:00,
2013-09-04 15:40:00,88.6,51.3,29.97,SE,128,13.0,20.0,28,0.00,CLR,,0.00,WeatherDisplay:10.37,2013-09-04 20:40:00,
2013-09-04 15:45:00,88.4,53.9,29.97,SE,135,8.7,13.8,31,0.00,CLR,,0.00,WeatherDisplay:10.37,2013-09-04 20:45:00,
2013-09-04 15:50:00,88.4,52.1,29.96,SE,126,7.9,11.5,29,0.00,CLR,,0.00,WeatherDisplay:10.37,2013-09-04 20:50:00,
2013-09-04 15:55:00,88.6,55.0,29.96,ESE,115,9.9,15.0,32,0.00,CLR,,0.00,WeatherDisplay:10.37,2013-09-04 20:55:00,
2013-09-04 16:00:00,88.6,57.4,29.96,ESE,107,12.4,13.0,35,0.00,CLR,,0.00,WeatherDisplay:10.37,2013-09-04 21:00:00,
2013-09-04 16:05:00,88.4,54.8,29.96,ESE,115,6.6,11.5,32,0.00,CLR,,0.00,WeatherDisplay:10.37,2013-09-04 21:05:00,
2013-09-04 16:10:00,89.0,57.0,29.96,SE,127,5.8,9.2,34,0.00,CLR,,0.00,WeatherDisplay:10.37,2013-09-04 21:10:00,
2013-09-04 16:15:00,89.5,54.0,29.96,SSE,155,13.3,19.6,30,0.00,CLR,,0.00,WeatherDisplay:10.37,2013-09-04 21:15:00,
2013-09-04 16:20:00,89.5,54.0,29.96,SSE,148,8.1,13.8,30,0.00,CLR,,0.00,WeatherDisplay:10.37,2013-09-04 21:20:00,
2013-09-04 16:25:00,89.7,54.1,29.96,ESE,104,8.2,11.5,30,0.00,CLR,,0.00,WeatherDisplay:10.37,2013-09-04 21:25:00,
2013-09-04 16:30:00,89.0,56.2,29.96,ESE,117,10.3,18.4,33,0.00,CLR,,0.00,WeatherDisplay:10.37,2013-09-04 21:30:00,
2013-09-04 16:35:00,88.8,56.8,29.96,SE,136,9.3,12.0,34,0.00,CLR,,0.00,WeatherDisplay:10.37,2013-09-04 21:35:00,
2013-09-04 16:40:00,88.8,56.8,29.95,East,88,8.2,13.8,34,0.00,CLR,,0.00,WeatherDisplay:10.37,2013-09-04 21:40:00,
2013-09-04 16:45:00,88.6,56.6,29.95,SE,126,8.8,13.0,34,0.00,CLR,,0.00,WeatherDisplay:10.37,2013-09-04 21:45:00,
2013-09-04 16:50:00,88.4,56.5,29.95,ENE,69,7.7,11.5,34,0.00,CLR,,0.00,WeatherDisplay:10.37,2013-09-04 21:50:00,
2013-09-04 16:55:00,88.2,54.6,29.95,SE,129,8.4,13.8,32,0.00,CLR,,0.00,WeatherDisplay:10.37,2013-09-04 21:55:00,
2013-09-04 17:00:00,88.0,55.3,29.95,ESE,120,10.7,18.4,33,0.00,CLR,,0.00,WeatherDisplay:10.37,2013-09-04 22:00:00,
2013-09-04 17:05:00,87.8,57.5,29.95,ESE,115,4.9,10.4,36,0.00,CLR,,0.00,WeatherDisplay:10.37,2013-09-04 22:05:00,
2013-09-04 17:10:00,87.6,57.3,29.95,SE,124,6.2,12.7,36,0.00,CLR,,0.00,WeatherDisplay:10.37,2013-09-04 22:10:00,
2013-09-04 17:15:00,87.0,56.8,29.94,ESE,117,8.4,13.8,36,0.00,CLR,,0.00,WeatherDisplay:10.37,2013-09-04 22:15:00,
2013-09-04 17:20:00,86.7,58.8,29.94,ESE,117,5.2,8.1,39,0.00,CLR,,0.00,WeatherDisplay:10.37,2013-09-04 22:20:00,
2013-09-04 17:25:00,86.7,59.5,29.95,SE,138,3.0,9.0,40,0.00,CLR,,0.00,WeatherDisplay:10.37,2013-09-04 22:25:00,
2013-09-04 17:30:00,87.0,59.0,29.94,SE,137,7.3,11.5,39,0.00,CLR,,0.00,WeatherDisplay:10.37,2013-09-04 22:30:00,
2013-09-04 17:35:00,87.4,59.4,29.94,SE,128,9.7,12.7,39,0.00,CLR,,0.00,WeatherDisplay:10.37,2013-09-04 22:35:00,
2013-09-04 17:40:00,87.4,60.8,29.94,SE,145,4.9,12.0,41,0.00,CLR,,0.00,WeatherDisplay:10.37,2013-09-04 22:40:00,
2013-09-04 17:45:00,87.2,60.6,29.94,SE,140,6.0,9.2,41,0.00,CLR,,0.00,WeatherDisplay:10.37,2013-09-04 22:45:00,
2013-09-04 17:50:00,86.7,62.2,29.94,SE,142,2.9,6.9,44,0.00,CLR,,0.00,WeatherDisplay:10.37,2013-09-04 22:50:00,
2013-09-04 17:55:00,86.1,61.6,29.94,ESE,117,1.0,2.3,44,0.00,CLR,,0.00,WeatherDisplay:10.37,2013-09-04 22:55:00,
2013-09-04 18:00:00,85.7,61.3,29.94,ESE,117,1.0,5.8,44,0.00,CLR,,0.00,WeatherDisplay:10.37,2013-09-04 23:00:00,
2013-09-04 18:05:00,85.5,62.4,29.94,ESE,117,0.0,0.0,46,0.00,CLR,,0.00,WeatherDisplay:10.37,2013-09-04 23:05:00,
2013-09-04 18:10:00,85.5,61.7,29.94,ESE,117,2.9,5.8,45,0.00,CLR,,0.00,WeatherDisplay:10.37,2013-09-04 23:10:00,
2013-09-04 18:15:00,85.1,62.6,29.94,ESE,117,0.0,3.5,47,0.00,CLR,,0.00,WeatherDisplay:10.37,2013-09-04 23:15:00,
2013-09-04 18:20:00,85.1,62.6,29.94,ESE,117,1.2,3.5,47,0.00,CLR,,0.00,WeatherDisplay:10.37,2013-09-04 23:20:00,
2013-09-04 18:25:00,85.1,62.6,29.94,ESE,117,0.0,0.0,47,0.00,CLR,,0.00,WeatherDisplay:10.37,2013-09-04 23:25:00,
2013-09-04 18:30:00,85.1,62.6,29.94,ESE,117,0.2,3.5,47,0.00,CLR,,0.00,WeatherDisplay:10.37,2013-09-04 23:30:00,
2013-09-04 18:35:00,85.1,62.6,29.94,ESE,117,1.0,2.3,47,0.00,CLR,,0.00,WeatherDisplay:10.37,2013-09-04 23:35:00,
2013-09-04 18:40:00,84.9,63.0,29.94,ESE,117,0.1,3.5,48,0.00,CLR,,0.00,WeatherDisplay:10.37,2013-09-04 23:40:00,
2013-09-04 18:45:00,84.7,62.2,29.94,ESE,117,2.7,9.2,47,0.00,CLR,,0.00,WeatherDisplay:10.37,2013-09-04 23:45:00,
2013-09-04 18:50:00,84.3,62.5,29.94,ESE,117,0.2,2.3,48,0.00,CLR,,0.00,WeatherDisplay:10.37,2013-09-04 23:50:00,
2013-09-04 18:55:00,84.3,62.5,29.94,ESE,117,0.1,2.3,48,0.00,CLR,,0.00,WeatherDisplay:10.37,2013-09-04 23:55:00,
2013-09-04 19:00:00,84.0,62.8,29.94,ESE,117,1.9,3.5,49,0.00,CLR,,0.00,WeatherDisplay:10.37,2013-09-05 00:00:00,
2013-09-04 19:05:00,83.6,63.0,29.94,ESE,117,0.7,1.2,50,0.00,CLR,,0.00,WeatherDisplay:10.37,2013-09-05 00:05:00,
2013-09-04 19:10:00,83.2,63.2,29.94,ESE,117,0.0,0.0,51,0.00,CLR,,0.00,WeatherDisplay:10.37,2013-09-05 00:10:00,
2013-09-04 19:15:00,82.8,63.4,29.94,ESE,117,0.0,0.0,52,0.00,CLR,,0.00,WeatherDisplay:10.37,2013-09-05 00:15:00,
2013-09-04 19:20:00,82.4,63.5,29.94,ESE,117,0.0,0.0,53,0.00,CLR,,0.00,WeatherDisplay:10.37,2013-09-05 00:20:00,
2013-09-04 19:25:00,82.0,63.2,29.94,ESE,117,0.0,0.0,53,0.00,CLR,,0.00,WeatherDisplay:10.37,2013-09-05 00:25:00,
2013-09-04 19:30:00,81.6,63.3,29.95,ESE,117,0.0,0.0,54,0.00,CLR,,0.00,WeatherDisplay:10.37,2013-09-05 00:30:00,
2013-09-04 19:35:00,81.1,62.9,29.95,ESE,117,0.0,0.0,54,0.00,CLR,,0.00,WeatherDisplay:10.37,2013-09-05 00:35:00,
2013-09-04 19:40:00,80.5,62.8,29.95,ESE,117,0.0,0.0,55,0.00,CLR,,0.00,WeatherDisplay:10.37,2013-09-05 00:40:00,
2013-09-04 19:45:00,80.1,63.0,29.95,ESE,117,0.0,0.0,56,0.00,CLR,,0.00,WeatherDisplay:10.37,2013-09-05 00:45:00,
2013-09-04 19:50:00,79.6,62.5,29.95,ESE,117,0.0,0.0,56,0.00,CLR,,0.00,WeatherDisplay:10.37,2013-09-05 00:50:00,
2013-09-04 19:55:00,79.2,61.6,29.95,ESE,117,0.0,0.0,55,0.00,CLR,,0.00,WeatherDisplay:10.37,2013-09-05 00:55:00,
2013-09-04 20:00:00,78.8,61.3,29.95,ESE,117,0.3,2.3,55,0.00,CLR,,0.00,WeatherDisplay:10.37,2013-09-05 01:00:00,
2013-09-04 20:05:00,78.6,61.1,29.95,ESE,117,0.0,0.0,55,0.00,CLR,,0.00,WeatherDisplay:10.37,2013-09-05 01:05:00,
2013-09-04 20:10:00,78.3,61.3,29.95,ESE,117,0.0,0.0,56,0.00,CLR,,0.00,WeatherDisplay:10.37,2013-09-05 01:10:00,
2013-09-04 20:15:00,78.1,61.6,29.95,ESE,117,0.0,0.0,57,0.00,CLR,,0.00,WeatherDisplay:10.37,2013-09-05 01:15:00,
2013-09-04 20:20:00,77.7,61.7,29.95,ESE,117,0.0,0.0,58,0.00,CLR,,0.00,WeatherDisplay:10.37,2013-09-05 01:20:00,
2013-09-04 20:25:00,77.2,61.3,29.96,ESE,117,0.0,0.0,58,0.00,CLR,,0.00,WeatherDisplay:10.37,2013-09-05 01:25:00,
2013-09-04 20:30:00,76.8,60.9,29.96,ESE,117,0.0,0.0,58,0.00,CLR,,0.00,WeatherDisplay:10.37,2013-09-05 01:30:00,
2013-09-04 20:35:00,76.7,61.3,29.96,ESE,117,0.0,0.0,59,0.00,CLR,,0.00,WeatherDisplay:10.37,2013-09-05 01:35:00,
2013-09-04 20:40:00,76.3,60.4,29.96,ESE,117,0.0,0.0,58,0.00,CLR,,0.00,WeatherDisplay:10.37,2013-09-05 01:40:00,
2013-09-04 20:45:00,76.1,60.7,29.96,ESE,117,0.0,0.0,59,0.00,CLR,,0.00,WeatherDisplay:10.37,2013-09-05 01:45:00,
2013-09-04 20:50:00,76.0,61.1,29.96,ESE,117,0.0,0.0,60,0.00,CLR,,0.00,WeatherDisplay:10.37,2013-09-05 01:50:00,
2013-09-04 20:55:00,75.6,60.7,29.96,ESE,117,0.0,0.0,60,0.00,CLR,,0.00,WeatherDisplay:10.37,2013-09-05 01:55:00,
2013-09-04 21:00:00,75.4,61.0,29.96,ESE,117,0.0,0.0,61,0.00,CLR,,0.00,WeatherDisplay:10.37,2013-09-05 02:00:00,
2013-09-04 21:05:00,75.3,60.9,29.96,ESE,117,0.0,0.0,61,0.00,CLR,,0.00,WeatherDisplay:10.37,2013-09-05 02:05:00,
2013-09-04 21:10:00,74.9,60.5,29.96,ESE,117,0.0,0.0,61,0.00,CLR,,0.00,WeatherDisplay:10.37,2013-09-05 02:10:00,
2013-09-04 21:15:00,74.7,60.4,29.96,ESE,117,0.0,0.0,61,0.00,CLR,,0.00,WeatherDisplay:10.37,2013-09-05 02:15:00,
2013-09-04 21:20:00,74.6,60.7,29.97,ESE,117,0.0,0.0,62,0.00,CLR,,0.00,WeatherDisplay:10.37,2013-09-05 02:20:00,
2013-09-04 21:25:00,74.2,60.3,29.97,ESE,117,0.0,0.0,62,0.00,CLR,,0.00,WeatherDisplay:10.37,2013-09-05 02:25:00,
2013-09-04 21:31:00,74.0,60.2,29.97,ESE,117,0.0,0.0,62,0.00,CLR,,0.00,WeatherDisplay:10.37,2013-09-05 02:31:00,
2013-09-04 21:36:00,73.9,60.1,29.97,ESE,117,0.0,0.0,62,0.00,CLR,,0.00,WeatherDisplay:10.37,2013-09-05 02:36:00,
2013-09-04 21:41:00,73.7,60.3,29.97,ESE,117,0.0,0.0,63,0.00,CLR,,0.00,WeatherDisplay:10.37,2013-09-05 02:41:00,
2013-09-04 21:46:00,73.5,60.1,29.97,ESE,117,0.0,0.0,63,0.00,CLR,,0.00,WeatherDisplay:10.37,2013-09-05 02:46:00,
2013-09-04 21:51:00,73.2,60.3,29.98,ESE,117,0.0,0.0,64,0.00,CLR,,0.00,WeatherDisplay:10.37,2013-09-05 02:51:00,
2013-09-04 21:56:00,73.0,60.5,29.98,ESE,117,0.0,0.0,65,0.00,CLR,,0.00,WeatherDisplay:10.37,2013-09-05 02:56:00,
2013-09-04 22:01:00,72.8,60.3,29.98,ESE,117,0.0,0.0,65,0.00,CLR,,0.00,WeatherDisplay:10.37,2013-09-05 03:01:00,
2013-09-04 22:06:00,72.8,60.3,29.98,ESE,117,0.0,0.0,65,0.00,CLR,,0.00,WeatherDisplay:10.37,2013-09-05 03:06:00,
2013-09-04 22:11:00,72.8,60.3,29.98,ESE,117,0.7,2.3,65,0.00,CLR,,0.00,WeatherDisplay:10.37,2013-09-05 03:11:00,
2013-09-04 22:16:00,72.8,60.3,29.98,ESE,117,0.0,0.0,65,0.00,CLR,,0.00,WeatherDisplay:10.37,2013-09-05 03:16:00,
2013-09-04 22:21:00,72.8,60.3,29.98,ESE,117,0.0,0.0,65,0.00,CLR,,0.00,WeatherDisplay:10.37,2013-09-05 03:21:00,
2013-09-04 22:26:00,72.7,60.3,29.99,ESE,117,0.0,0.0,65,0.00,CLR,,0.00,WeatherDisplay:10.37,2013-09-05 03:26:00,
2013-09-04 22:31:00,72.7,60.7,29.99,ESE,117,0.0,0.0,66,0.00,CLR,,0.00,WeatherDisplay:10.37,2013-09-05 03:31:00,
2013-09-04 22:36:00,72.5,60.5,29.99,ESE,117,0.0,1.2,66,0.00,CLR,,0.00,WeatherDisplay:10.37,2013-09-05 03:36:00,
2013-09-04 22:41:00,72.3,60.3,29.99,ESE,117,0.0,0.0,66,0.00,CLR,,0.00,WeatherDisplay:10.37,2013-09-05 03:41:00,
2013-09-04 22:46:00,72.1,60.5,29.99,ESE,117,0.0,0.0,67,0.00,CLR,,0.00,WeatherDisplay:10.37,2013-09-05 03:46:00,
2013-09-04 22:51:00,71.8,60.2,29.99,ESE,117,0.0,0.0,67,0.00,CLR,,0.00,WeatherDisplay:10.37,2013-09-05 03:51:00,
2013-09-04 22:56:00,71.6,60.5,30.00,ESE,117,0.0,0.0,68,0.00,CLR,,0.00,WeatherDisplay:10.37,2013-09-05 03:56:00,
2013-09-04 23:01:00,71.6,60.5,30.00,ESE,117,0.0,0.0,68,0.00,CLR,,0.00,WeatherDisplay:10.37,2013-09-05 04:01:00,
2013-09-04 23:02:00,71.6,60.5,30.00,ESE,117,0.0,0.0,68,0.00,CLR,,0.00,WeatherDisplay:10.37,2013-09-05 04:02:00,
2013-09-04 23:07:00,71.6,60.5,30.00,ESE,117,0.0,0.0,68,0.00,CLR,,0.00,WeatherDisplay:10.37,2013-09-05 04:07:00,
2013-09-04 23:12:00,71.5,60.8,30.00,ESE,117,0.0,0.0,69,0.00,CLR,,0.00,WeatherDisplay:10.37,2013-09-05 04:12:00,
2013-09-04 23:17:00,71.3,60.6,30.00,ESE,117,0.0,0.0,69,0.00,CLR,,0.00,WeatherDisplay:10.37,2013-09-05 04:17:00,
2013-09-04 23:22:00,71.1,60.4,30.00,ESE,117,0.0,0.0,69,0.00,CLR,,0.00,WeatherDisplay:10.37,2013-09-05 04:22:00,
2013-09-04 23:27:00,71.1,60.8,30.00,ESE,117,0.0,0.0,70,0.00,CLR,,0.00,WeatherDisplay:10.37,2013-09-05 04:27:00,
2013-09-04 23:32:00,70.9,60.6,30.00,ESE,117,0.0,0.0,70,0.00,CLR,,0.00,WeatherDisplay:10.37,2013-09-05 04:32:00,
2013-09-04 23:37:00,70.8,60.9,30.00,ESE,117,0.0,0.0,71,0.00,CLR,,0.00,WeatherDisplay:10.37,2013-09-05 04:37:00,
2013-09-04 23:42:00,70.6,60.7,30.00,ESE,117,0.0,0.0,71,0.00,CLR,,0.00,WeatherDisplay:10.37,2013-09-05 04:42:00,
2013-09-04 23:48:00,70.4,60.9,30.00,ESE,117,0.0,0.0,72,0.00,CLR,,0.00,WeatherDisplay:10.37,2013-09-05 04:48:00,
2013-09-04 23:53:00,70.3,60.8,30.00,ESE,117,0.0,0.0,72,0.00,CLR,,0.00,WeatherDisplay:10.37,2013-09-05 04:53:00,
2013-09-04 23:58:00,69.9,60.8,30.00,ESE,117,0.0,0.0,73,0.00,CLR,,0.00,WeatherDisplay:10.37,2013-09-05 04:58:00,